KATY Airport (Watertown Rgnl) Information

FAA: ATY - ICAO: KATY

KATY Airport Location

State South Dakota
County Codington
City Watertown
KATY Airport is 2 miles northwest of Watertown, SD.
Latitude 44-54-50.3000N
Longitude 097-09-17.0000W
Elevation 1,749ft

KATY Airport METARs

METAR KATY 280253Z AUTO 35009KT 10SM -RA OVC055 08/07 A2973 RMK AO2 SLP075 P0002 60006 T00780067 51012
Altimeter 29.73"
Temperature 7.8°C (46.0°F)
Wind 350° at 9KT
Clouds overcast at 5,500ft
Visibility 10.0mi
Time observed: 2021-10-28T02:53:00Z

KATY Airport Details

Status Operational
Activation December 1937
Ownership Public
Usage Public
Chart TWIN CITIES
ATC on-site No
Beacon schedule sunset-sunrise
Beacon color clear green

KATY Airport Contacts

Owner CITY OF WATERTOWN
Owner address P.O. BOX 910, WATERTOWN, SD 57201
Owner phone 605-882-6209
Manager MICHAEL GIBBS - CEO
Manager address HEART HOSPITAL OF SOUTH DAKOTA, 4500 WEST 69TH ST, SIOUX FALLS, SD 57108
Manager phone 605-977-7000

KATY Airport (Watertown Rgnl) Radio Frequencies

KATY (Airport) Radio Frequencies

UNICOM 123.05
Common traffic advisory frequency (CTAF) 123.05